createdAt,value
2022-09-15T00:00:37.511Z,82.54
2022-09-15T00:01:37.579Z,82.54
2022-09-15T00:02:37.549Z,82.54
2022-09-15T00:03:37.515Z,82.54
2022-09-15T00:04:37.481Z,82.54
2022-09-15T00:05:37.482Z,82.44
2022-09-15T00:06:37.462Z,82.44
2022-09-15T00:07:37.466Z,82.44
2022-09-15T00:08:37.457Z,82.34
2022-09-15T00:09:37.477Z,82.24
2022-09-15T00:10:37.425Z,82.34
2022-09-15T00:11:37.425Z,82.54
2022-09-15T00:12:37.420Z,82.54
2022-09-15T00:13:37.405Z,82.34
2022-09-15T00:14:37.408Z,82.34
2022-09-15T00:15:37.510Z,82.24
2022-09-15T00:16:37.477Z,82.34
2022-09-15T00:17:37.390Z,82.34
2022-09-15T00:18:37.357Z,82.34
2022-09-15T00:19:37.373Z,82.24
2022-09-15T00:20:37.352Z,82.04
2022-09-15T00:21:37.377Z,82.04
2022-09-15T00:22:37.348Z,82.24
2022-09-15T00:23:37.334Z,82.24
2022-09-15T00:24:37.311Z,82.24
2022-09-15T00:25:37.301Z,82.24
2022-09-15T00:26:37.306Z,82.14
2022-09-15T00:27:37.300Z,81.73
2022-09-15T00:28:37.273Z,81.84
2022-09-15T00:29:37.282Z,81.84
2022-09-15T00:30:37.301Z,81.84
2022-09-15T00:31:37.253Z,81.93
2022-09-15T00:32:37.243Z,81.84
2022-09-15T00:33:37.257Z,81.84
2022-09-15T00:34:37.224Z,81.73
2022-09-15T00:35:37.224Z,81.84
2022-09-15T00:36:37.219Z,81.93
2022-09-15T00:37:37.220Z,82.04
2022-09-15T00:38:37.202Z,82.14
2022-09-15T00:39:37.219Z,82.14
2022-09-15T00:40:37.177Z,82.14
2022-09-15T00:41:37.180Z,82.14
2022-09-15T00:42:37.157Z,82.14
2022-09-15T00:43:37.149Z,82.14
2022-09-15T00:44:37.138Z,82.04
2022-09-15T00:45:37.222Z,82.14
2022-09-15T00:46:37.133Z,82.04
2022-09-15T00:47:37.146Z,81.84
2022-09-15T00:48:37.108Z,81.84
2022-09-15T00:49:37.100Z,81.93
2022-09-15T00:50:37.091Z,81.93
2022-09-15T00:51:37.097Z,82.04
2022-09-15T00:52:37.072Z,82.04
2022-09-15T00:53:37.062Z,81.93
2022-09-15T00:54:37.065Z,81.87
2022-09-15T00:55:37.064Z,81.84
2022-09-15T00:56:37.033Z,81.84
2022-09-15T00:57:37.053Z,81.93
2022-09-15T00:58:37.022Z,81.87
2022-09-15T00:59:37.014Z,81.98
2022-09-15T01:00:37.010Z,81.98
2022-09-15T01:01:37.026Z,81.77
2022-09-15T01:02:37.031Z,81.87
2022-09-15T01:03:36.996Z,81.98
2022-09-15T01:04:37.081Z,81.98
2022-09-15T01:05:36.956Z,81.87
2022-09-15T01:06:36.947Z,81.87
2022-09-15T01:07:36.947Z,81.87
2022-09-15T01:08:36.929Z,81.98
2022-09-15T01:09:36.950Z,81.77
2022-09-15T01:10:36.918Z,81.67
2022-09-15T01:11:36.912Z,81.67
2022-09-15T01:12:36.900Z,81.67
2022-09-15T01:13:36.912Z,81.57
2022-09-15T01:14:36.894Z,81.47
2022-09-15T01:15:36.901Z,81.47
2022-09-15T01:16:36.904Z,81.37
2022-09-15T01:17:36.861Z,81.37
2022-09-15T01:18:36.852Z,81.47
2022-09-15T01:19:36.844Z,81.17
2022-09-15T01:20:36.832Z,81.37
2022-09-15T01:21:36.853Z,81.17
2022-09-15T01:22:36.814Z,81.27
2022-09-15T01:23:36.826Z,81.27
2022-09-15T01:24:36.808Z,81.27
2022-09-15T01:25:36.795Z,81.17
2022-09-15T01:26:36.799Z,81.01
2022-09-15T01:27:42.463Z,81.01
2022-09-15T01:28:36.780Z,81.21
2022-09-15T01:29:36.757Z,80.90
2022-09-15T01:30:36.760Z,81.01
2022-09-15T01:31:36.829Z,81.10
2022-09-15T01:32:36.741Z,80.50
2022-09-15T01:33:36.760Z,80.70
2022-09-15T01:34:36.730Z,80.80
2022-09-15T01:35:36.724Z,81.01
2022-09-15T01:36:36.712Z,81.01
2022-09-15T01:37:36.697Z,81.10
2022-09-15T01:38:36.694Z,80.90
2022-09-15T01:39:36.698Z,80.80
2022-09-15T01:40:36.677Z,80.90
2022-09-15T01:41:36.674Z,81.01
2022-09-15T01:42:36.643Z,80.80
2022-09-15T01:43:36.642Z,80.90
2022-09-15T01:44:36.646Z,81.10
2022-09-15T01:45:36.700Z,81.10
2022-09-15T01:46:36.614Z,81.21
2022-09-15T01:47:36.619Z,81.10
2022-09-15T01:48:36.594Z,81.01
2022-09-15T01:49:36.598Z,81.01
2022-09-15T01:50:36.589Z,81.01
2022-09-15T01:51:36.601Z,81.10
2022-09-15T01:52:36.565Z,81.01
2022-09-15T01:53:36.570Z,81.01
2022-09-15T01:54:36.559Z,81.10
2022-09-15T01:55:36.537Z,81.10
2022-09-15T01:56:36.527Z,81.21
2022-09-15T01:57:36.537Z,81.21
2022-09-15T01:58:36.521Z,81.21
2022-09-15T01:59:36.521Z,81.30
2022-09-15T02:00:36.504Z,81.41
2022-09-15T02:01:36.572Z,81.41
2022-09-15T02:02:36.554Z,81.51
2022-09-15T02:03:36.490Z,81.51
2022-09-15T02:04:36.474Z,81.61
2022-09-15T02:05:36.453Z,81.51
2022-09-15T02:06:36.442Z,81.51
2022-09-15T02:07:36.442Z,81.51
2022-09-15T02:08:36.436Z,81.51
2022-09-15T02:09:36.444Z,81.41
2022-09-15T02:10:36.425Z,81.41
2022-09-15T02:11:36.413Z,81.51
2022-09-15T02:12:36.407Z,81.51
2022-09-15T02:13:36.395Z,81.47
2022-09-15T02:14:36.374Z,81.61
2022-09-15T02:15:36.399Z,81.51
2022-09-15T02:16:36.456Z,81.51
2022-09-15T02:17:36.355Z,81.51
2022-09-15T02:18:36.347Z,81.47
2022-09-15T02:19:36.336Z,81.41
2022-09-15T02:20:36.341Z,81.41
2022-09-15T02:21:36.340Z,81.47
2022-09-15T02:22:36.308Z,81.51
2022-09-15T02:23:36.299Z,81.61
2022-09-15T02:24:36.290Z,81.61
2022-09-15T02:25:36.289Z,81.51
2022-09-15T02:26:36.284Z,81.51
2022-09-15T02:27:36.288Z,81.61
2022-09-15T02:28:36.265Z,81.61
2022-09-15T02:29:36.268Z,81.61
2022-09-15T02:30:36.254Z,81.61
2022-09-15T02:31:36.283Z,81.61
2022-09-15T02:32:36.223Z,81.51
2022-09-15T02:33:36.252Z,81.61
2022-09-15T02:34:36.203Z,81.71
2022-09-15T02:35:36.203Z,81.61
2022-09-15T02:36:36.197Z,81.61
2022-09-15T02:37:36.185Z,81.71
2022-09-15T02:38:36.164Z,81.71
2022-09-15T02:39:36.175Z,81.71
2022-09-15T02:40:36.158Z,81.71
2022-09-15T02:41:36.159Z,81.71
2022-09-15T02:42:36.136Z,81.81
2022-09-15T02:43:36.149Z,81.81
2022-09-15T02:44:36.118Z,81.81
2022-09-15T02:45:36.243Z,81.81
2022-09-15T02:46:36.120Z,81.81
2022-09-15T02:47:36.098Z,81.77
2022-09-15T02:48:36.090Z,81.87
2022-09-15T02:49:36.080Z,81.91
2022-09-15T02:50:36.082Z,81.87
2022-09-15T02:51:36.079Z,81.87
2022-09-15T02:52:36.057Z,81.91
2022-09-15T02:53:36.064Z,81.87
2022-09-15T02:54:36.031Z,81.91
2022-09-15T02:55:36.044Z,81.87
2022-09-15T02:56:36.034Z,81.91
2022-09-15T02:57:36.022Z,81.98
2022-09-15T02:58:36.017Z,81.87
2022-09-15T02:59:35.993Z,82.01
2022-09-15T03:00:36.026Z,82.11
2022-09-15T03:01:36.035Z,82.01
2022-09-15T03:02:35.979Z,82.01
2022-09-15T03:03:38.845Z,82.01
2022-09-15T03:04:35.954Z,82.01
2022-09-15T03:05:35.961Z,82.01
2022-09-15T03:06:35.935Z,82.01
2022-09-15T03:07:35.945Z,82.01
2022-09-15T03:08:35.933Z,82.01
2022-09-15T03:09:35.917Z,82.01
2022-09-15T03:10:35.911Z,82.01
2022-09-15T03:11:35.898Z,82.01
2022-09-15T03:12:35.894Z,82.01
2022-09-15T03:13:35.892Z,82.01
2022-09-15T03:14:35.867Z,82.01
2022-09-15T03:15:35.882Z,82.11
2022-09-15T03:16:35.942Z,82.01
2022-09-15T03:17:35.862Z,82.01
2022-09-15T03:18:35.831Z,82.01
2022-09-15T03:19:35.842Z,82.01
2022-09-15T03:20:35.828Z,82.01
2022-09-15T03:21:35.823Z,82.01
2022-09-15T03:22:35.809Z,82.11
2022-09-15T03:23:35.794Z,82.11
2022-09-15T03:24:35.791Z,82.21
2022-09-15T03:25:35.787Z,82.11
2022-09-15T03:26:35.774Z,82.11
2022-09-15T03:27:35.867Z,82.11
2022-09-15T03:28:35.767Z,82.21
2022-09-15T03:29:35.749Z,82.21
2022-09-15T03:30:35.735Z,82.21
2022-09-15T03:31:35.768Z,82.21
2022-09-15T03:32:35.716Z,82.31
2022-09-15T03:33:35.730Z,82.31
2022-09-15T03:34:35.698Z,82.42
2022-09-15T03:35:35.701Z,82.35
2022-09-15T03:36:35.688Z,82.35
2022-09-15T03:37:35.682Z,82.25
2022-09-15T03:38:35.692Z,82.25
2022-09-15T03:39:35.659Z,82.25
2022-09-15T03:40:35.650Z,82.15
2022-09-15T03:41:35.641Z,82.15
2022-09-15T03:42:35.631Z,82.15
2022-09-15T03:43:35.633Z,82.25
2022-09-15T03:44:35.625Z,82.25
2022-09-15T03:45:35.683Z,82.35
2022-09-15T03:46:35.602Z,82.25
2022-09-15T03:47:35.606Z,82.25
2022-09-15T03:48:35.596Z,82.25
2022-09-15T03:49:35.564Z,82.25
2022-09-15T03:50:35.565Z,82.25
2022-09-15T03:51:35.578Z,82.25
2022-09-15T03:52:35.558Z,82.25
2022-09-15T03:53:35.532Z,82.25
2022-09-15T03:54:35.536Z,82.25
2022-09-15T03:55:35.518Z,82.25
2022-09-15T03:56:35.516Z,82.15
2022-09-15T03:57:35.520Z,82.05
2022-09-15T03:58:35.497Z,82.15
2022-09-15T03:59:35.499Z,82.15
2022-09-15T04:00:35.524Z,82.15
2022-09-15T04:01:35.497Z,82.05
2022-09-15T04:02:35.475Z,82.05
2022-09-15T04:03:40.244Z,82.05
2022-09-15T04:04:35.453Z,82.15
2022-09-15T04:05:35.437Z,82.15
2022-09-15T04:06:35.431Z,82.15
2022-09-15T04:07:35.424Z,82.15
2022-09-15T04:08:35.427Z,82.15
2022-09-15T04:09:35.426Z,82.05
2022-09-15T04:10:35.392Z,82.05
2022-09-15T04:11:35.383Z,82.15
2022-09-15T04:12:35.384Z,82.15
2022-09-15T04:13:35.377Z,82.15
2022-09-15T04:14:35.363Z,82.15
2022-09-15T04:15:35.369Z,82.15
2022-09-15T04:16:35.399Z,82.15
2022-09-15T04:17:35.336Z,82.25
2022-09-15T04:18:35.347Z,82.25
2022-09-15T04:19:35.316Z,82.25
2022-09-15T04:20:35.320Z,82.25
2022-09-15T04:21:35.321Z,82.25
2022-09-15T04:22:35.296Z,82.25
2022-09-15T04:23:35.292Z,82.35
2022-09-15T04:24:35.290Z,82.25
2022-09-15T04:25:35.271Z,82.15
2022-09-15T04:26:35.258Z,82.15
2022-09-15T04:27:35.259Z,82.15
2022-09-15T04:28:35.253Z,82.15
2022-09-15T04:29:35.244Z,82.15
2022-09-15T04:30:35.220Z,82.05
2022-09-15T04:31:35.243Z,82.05
2022-09-15T04:32:35.202Z,82.05
2022-09-15T04:33:35.203Z,82.05
2022-09-15T04:34:39.261Z,82.05
2022-09-15T04:35:35.196Z,82.05
2022-09-15T04:36:35.173Z,82.05
2022-09-15T04:37:35.163Z,81.95
2022-09-15T04:38:35.154Z,81.85
2022-09-15T04:39:35.287Z,81.85
2022-09-15T04:40:35.143Z,81.95
2022-09-15T04:41:35.138Z,81.95
2022-09-15T04:42:35.126Z,81.95
2022-09-15T04:43:35.121Z,81.95
2022-09-15T04:44:35.119Z,81.95
2022-09-15T04:45:35.116Z,81.95
2022-09-15T04:46:35.149Z,81.95
2022-09-15T04:47:35.093Z,81.99
2022-09-15T04:48:35.069Z,81.99
2022-09-15T04:49:35.413Z,81.99
2022-09-15T04:50:35.061Z,82.09
2022-09-15T04:51:35.048Z,82.09
2022-09-15T04:52:35.042Z,82.09
2022-09-15T04:53:35.033Z,82.09
2022-09-15T04:54:35.031Z,82.19
2022-09-15T04:55:35.018Z,82.09
2022-09-15T04:56:35.014Z,82.19
2022-09-15T04:57:35.022Z,82.19
2022-09-15T04:58:34.995Z,82.19
2022-09-15T04:59:34.971Z,82.29
2022-09-15T05:00:34.967Z,82.29
2022-09-15T05:01:34.985Z,82.19
2022-09-15T05:02:35.091Z,82.19
2022-09-15T05:03:34.967Z,82.09
2022-09-15T05:04:34.947Z,82.19
2022-09-15T05:05:34.928Z,82.19
2022-09-15T05:06:35.052Z,82.29
2022-09-15T05:07:34.908Z,82.39
2022-09-15T05:08:34.897Z,82.39
2022-09-15T05:09:34.910Z,82.39
2022-09-15T05:10:34.894Z,82.39
2022-09-15T05:11:34.880Z,82.39
2022-09-15T05:12:34.926Z,82.50
2022-09-15T05:13:34.847Z,82.39
2022-09-15T05:14:34.858Z,82.50
2022-09-15T05:15:34.837Z,82.50
2022-09-15T05:16:34.861Z,82.59
2022-09-15T05:17:34.824Z,82.50
2022-09-15T05:18:34.809Z,82.50
2022-09-15T05:19:34.810Z,82.59
2022-09-15T05:20:34.803Z,82.73
2022-09-15T05:21:34.814Z,82.70
2022-09-15T05:22:38.302Z,82.79
2022-09-15T05:23:34.788Z,82.79
2022-09-15T05:24:34.751Z,82.79
2022-09-15T05:25:34.755Z,82.79
2022-09-15T05:26:34.744Z,82.90
2022-09-15T05:27:34.733Z,82.90
2022-09-15T05:28:34.724Z,82.90
2022-09-15T05:29:34.705Z,82.90
2022-09-15T05:30:39.564Z,83.10
2022-09-15T05:31:34.768Z,83.10
2022-09-15T05:32:34.698Z,83.10
2022-09-15T05:33:34.689Z,83.10
2022-09-15T05:34:34.666Z,83.20
2022-09-15T05:35:34.660Z,83.20
2022-09-15T05:36:34.660Z,83.20
2022-09-15T05:37:34.647Z,83.20
2022-09-15T05:38:34.641Z,83.20
2022-09-15T05:39:34.636Z,83.20
2022-09-15T05:40:34.640Z,83.20
2022-09-15T05:41:34.612Z,83.20
2022-09-15T05:42:34.597Z,83.20
2022-09-15T05:43:34.579Z,83.20
2022-09-15T05:44:34.591Z,83.20
2022-09-15T05:45:34.590Z,83.20
2022-09-15T05:46:34.640Z,83.20
2022-09-15T05:47:34.541Z,83.40
2022-09-15T05:48:34.542Z,83.30
2022-09-15T05:49:34.537Z,83.40
2022-09-15T05:50:34.537Z,83.40
2022-09-15T05:51:34.537Z,83.50
2022-09-15T05:52:34.517Z,83.40
2022-09-15T05:53:34.497Z,83.40
2022-09-15T05:54:34.505Z,83.40
2022-09-15T05:55:34.488Z,83.50
2022-09-15T05:56:34.485Z,83.46
2022-09-15T05:57:34.490Z,83.36
2022-09-15T05:58:34.486Z,83.36
2022-09-15T05:59:34.449Z,83.36
2022-09-15T06:00:34.439Z,83.46
2022-09-15T06:01:34.460Z,83.36
2022-09-15T06:02:34.495Z,83.36
2022-09-15T06:03:34.421Z,83.36
2022-09-15T06:04:34.412Z,83.36
2022-09-15T06:05:34.403Z,83.36
2022-09-15T06:06:34.378Z,83.46
2022-09-15T06:07:34.371Z,83.36
2022-09-15T06:08:34.361Z,83.46
2022-09-15T06:09:34.373Z,83.46
2022-09-15T06:10:34.365Z,83.36
2022-09-15T06:11:34.341Z,83.46
2022-09-15T06:12:34.346Z,83.46
2022-09-15T06:13:34.325Z,83.46
2022-09-15T06:14:34.312Z,83.46
2022-09-15T06:15:34.313Z,83.36
2022-09-15T06:16:34.447Z,83.36
2022-09-15T06:17:34.285Z,83.36
2022-09-15T06:18:34.273Z,83.36
2022-09-15T06:19:34.264Z,83.36
2022-09-15T06:20:34.264Z,83.36
2022-09-15T06:21:34.254Z,83.26
2022-09-15T06:22:34.246Z,83.26
2022-09-15T06:23:34.228Z,83.26
2022-09-15T06:24:34.228Z,83.16
2022-09-15T06:25:34.220Z,83.06
2022-09-15T06:26:34.208Z,82.96
2022-09-15T06:27:34.210Z,82.86
2022-09-15T06:28:34.187Z,82.86
2022-09-15T06:29:34.181Z,82.76
2022-09-15T06:30:34.168Z,82.76
2022-09-15T06:31:34.221Z,82.76
2022-09-15T06:32:34.162Z,82.65
2022-09-15T06:33:34.160Z,82.76
2022-09-15T06:34:34.130Z,82.56
2022-09-15T06:35:34.123Z,82.56
2022-09-15T06:36:34.133Z,82.45
2022-09-15T06:37:34.101Z,82.45
2022-09-15T06:38:34.113Z,82.35
2022-09-15T06:39:34.106Z,82.45
2022-09-15T06:40:34.169Z,82.25
2022-09-15T06:41:52.896Z,82.45
2022-09-15T06:42:34.077Z,82.56
2022-09-15T06:43:34.074Z,82.35
2022-09-15T06:44:34.044Z,82.35
2022-09-15T06:45:34.059Z,82.45
2022-09-15T06:46:34.091Z,82.45
2022-09-15T06:47:34.200Z,82.45
2022-09-15T06:48:34.015Z,82.15
2022-09-15T06:49:33.996Z,82.21
2022-09-15T06:50:34.009Z,82.31
2022-09-15T06:51:34.016Z,82.21
2022-09-15T06:52:33.977Z,82.31
2022-09-15T06:53:33.981Z,82.42
2022-09-15T06:54:33.960Z,82.42
2022-09-15T06:55:33.962Z,82.51
2022-09-15T06:56:37.922Z,82.42
2022-09-15T06:57:33.939Z,82.42
2022-09-15T06:58:33.972Z,82.31
2022-09-15T06:59:33.933Z,82.31
2022-09-15T07:00:33.931Z,82.31
2022-09-15T07:01:33.900Z,82.31
2022-09-15T07:02:34.046Z,82.31
2022-09-15T07:03:33.989Z,82.11
2022-09-15T07:04:33.885Z,81.91
2022-09-15T07:05:33.862Z,81.81
2022-09-15T07:06:33.866Z,81.61
2022-09-15T07:07:33.844Z,81.81
2022-09-15T07:08:33.845Z,81.81
2022-09-15T07:09:33.844Z,81.91
2022-09-15T07:10:33.840Z,81.81
2022-09-15T07:11:33.816Z,81.81
2022-09-15T07:12:33.805Z,81.81
2022-09-15T07:13:33.809Z,81.81
2022-09-15T07:14:33.809Z,81.91
2022-09-15T07:15:33.808Z,81.98
2022-09-15T07:16:33.813Z,81.67
2022-09-15T07:17:33.771Z,81.67
2022-09-15T07:18:33.756Z,81.77
2022-09-15T07:19:33.761Z,81.77
2022-09-15T07:20:33.738Z,81.57
2022-09-15T07:21:33.762Z,81.67
2022-09-15T07:22:33.734Z,81.57
2022-09-15T07:23:33.724Z,81.47
2022-09-15T07:24:33.723Z,81.47
2022-09-15T07:25:33.705Z,81.07
2022-09-15T07:26:33.707Z,80.57
2022-09-15T07:27:33.701Z,80.57
2022-09-15T07:28:33.681Z,80.97
2022-09-15T07:29:37.595Z,80.77
2022-09-15T07:30:33.652Z,80.46
2022-09-15T07:31:33.734Z,80.97
2022-09-15T07:32:33.646Z,81.07
2022-09-15T07:33:33.634Z,80.87
2022-09-15T07:34:33.622Z,80.66
2022-09-15T07:35:33.617Z,80.97
2022-09-15T07:36:33.617Z,81.07
2022-09-15T07:37:33.592Z,80.87
2022-09-15T07:38:33.596Z,80.87
2022-09-15T07:39:33.585Z,81.07
2022-09-15T07:40:33.609Z,81.07
2022-09-15T07:41:33.571Z,81.07
2022-09-15T07:42:35.571Z,80.77
2022-09-15T07:43:33.550Z,80.80
2022-09-15T07:44:33.541Z,80.80
2022-09-15T07:45:33.597Z,80.90
2022-09-15T07:46:33.518Z,81.01
2022-09-15T07:47:33.523Z,81.01
2022-09-15T07:48:33.502Z,81.01
2022-09-15T07:49:33.503Z,81.10
2022-09-15T07:50:33.494Z,81.21
2022-09-15T07:51:33.502Z,81.30
2022-09-15T07:52:33.474Z,81.21
2022-09-15T07:53:33.451Z,81.30
2022-09-15T07:54:33.441Z,81.30
2022-09-15T07:55:33.455Z,81.41
2022-09-15T07:56:33.424Z,81.41
2022-09-15T07:57:33.457Z,81.51
2022-09-15T07:58:33.403Z,81.41
2022-09-15T07:59:33.418Z,81.41
2022-09-15T08:00:33.443Z,81.41
2022-09-15T08:01:33.425Z,81.41
2022-09-15T08:02:33.388Z,81.41
2022-09-15T08:03:33.376Z,81.30
2022-09-15T08:04:33.370Z,81.51
2022-09-15T08:05:38.161Z,81.51
2022-09-15T08:06:33.347Z,81.51
2022-09-15T08:07:33.339Z,81.71
2022-09-15T08:08:33.326Z,81.71
2022-09-15T08:09:33.349Z,81.81
2022-09-15T08:10:33.329Z,81.81
2022-09-15T08:11:33.307Z,82.01
2022-09-15T08:12:33.289Z,82.01
2022-09-15T08:13:33.289Z,82.01
2022-09-15T08:14:33.283Z,82.01
2022-09-15T08:15:33.282Z,82.11
2022-09-15T08:16:33.310Z,82.11
2022-09-15T08:17:33.265Z,82.21
2022-09-15T08:18:33.254Z,82.31
2022-09-15T08:19:33.246Z,82.31
2022-09-15T08:20:33.240Z,82.31
2022-09-15T08:21:33.253Z,82.31
2022-09-15T08:22:33.217Z,82.31
2022-09-15T08:23:33.203Z,82.42
2022-09-15T08:24:33.197Z,82.42
2022-09-15T08:25:33.198Z,82.42
2022-09-15T08:26:33.174Z,82.42
2022-09-15T08:27:33.185Z,82.51
2022-09-15T08:28:33.156Z,82.62
2022-09-15T08:29:33.159Z,82.62
2022-09-15T08:30:33.136Z,82.62
2022-09-15T08:31:33.186Z,82.42
2022-09-15T08:32:33.130Z,82.42
2022-09-15T08:33:33.261Z,82.42
2022-09-15T08:34:33.107Z,82.51
2022-09-15T08:35:33.098Z,82.51
2022-09-15T08:36:33.087Z,82.62
2022-09-15T08:37:33.092Z,82.62
2022-09-15T08:38:33.084Z,82.62
2022-09-15T08:39:33.090Z,82.48
2022-09-15T08:40:33.160Z,82.38
2022-09-15T08:41:33.051Z,82.38
2022-09-15T08:42:33.044Z,82.38
2022-09-15T08:43:33.045Z,82.28
2022-09-15T08:44:33.031Z,82.48
2022-09-15T08:45:33.037Z,82.38
2022-09-15T08:46:33.045Z,82.38
2022-09-15T08:47:33.006Z,82.58
2022-09-15T08:48:32.997Z,82.28
2022-09-15T08:49:50.522Z,82.28
2022-09-15T08:50:32.977Z,82.28
2022-09-15T08:51:32.995Z,82.38
2022-09-15T08:52:32.944Z,82.28
2022-09-15T08:53:32.945Z,82.28
2022-09-15T08:54:32.939Z,82.38
2022-09-15T08:55:32.942Z,82.48
2022-09-15T08:56:32.937Z,82.58
2022-09-15T08:57:32.917Z,82.38
2022-09-15T08:58:32.897Z,82.28
2022-09-15T08:59:32.888Z,82.07
2022-09-15T09:00:32.891Z,82.28
2022-09-15T09:01:32.924Z,82.18
2022-09-15T09:02:32.881Z,82.18
2022-09-15T09:03:32.889Z,82.24
2022-09-15T09:04:32.853Z,82.38
2022-09-15T09:05:32.853Z,82.38
2022-09-15T09:06:32.830Z,82.18
2022-09-15T09:07:32.834Z,82.07
2022-09-15T09:08:32.813Z,82.07
2022-09-15T09:09:32.835Z,81.93
2022-09-15T09:10:32.806Z,81.98
2022-09-15T09:11:32.803Z,82.07
2022-09-15T09:12:32.772Z,82.18
2022-09-15T09:13:35.583Z,82.18
2022-09-15T09:14:32.768Z,81.77
2022-09-15T09:15:32.869Z,81.67
2022-09-15T09:16:32.744Z,81.57
2022-09-15T09:17:32.749Z,81.67
2022-09-15T09:18:32.726Z,81.77
2022-09-15T09:19:32.721Z,81.84
2022-09-15T09:20:32.719Z,81.87
2022-09-15T09:21:32.744Z,81.84
2022-09-15T09:22:32.703Z,81.93
2022-09-15T09:23:32.701Z,81.84
2022-09-15T09:24:32.698Z,81.93
2022-09-15T09:25:32.671Z,82.04
2022-09-15T09:26:32.658Z,82.24
2022-09-15T09:27:32.690Z,82.24
2022-09-15T09:28:32.652Z,82.24
2022-09-15T09:29:32.638Z,82.24
2022-09-15T09:30:32.635Z,82.14
2022-09-15T09:31:32.620Z,81.79
2022-09-15T09:32:32.624Z,81.90
2022-09-15T09:33:32.633Z,81.90
2022-09-15T09:34:32.595Z,81.99
2022-09-15T09:35:32.595Z,81.90
2022-09-15T09:36:32.573Z,81.99
2022-09-15T09:37:32.576Z,81.99
2022-09-15T09:38:32.568Z,81.70
2022-09-15T09:39:32.574Z,81.59
2022-09-15T09:40:32.622Z,81.49
2022-09-15T09:41:32.549Z,81.39
2022-09-15T09:42:32.525Z,81.39
2022-09-15T09:43:32.528Z,81.29
2022-09-15T09:44:32.518Z,81.49
2022-09-15T09:45:32.530Z,81.49
2022-09-15T09:46:32.538Z,81.49
2022-09-15T09:47:32.485Z,81.39
2022-09-15T09:48:32.483Z,81.29
2022-09-15T09:49:32.468Z,81.15
2022-09-15T09:50:32.461Z,81.39
2022-09-15T09:51:32.476Z,81.59
2022-09-15T09:52:32.438Z,81.15
2022-09-15T09:53:32.461Z,80.95
2022-09-15T09:54:32.433Z,81.05
2022-09-15T09:55:32.433Z,80.95
2022-09-15T09:56:32.414Z,81.15
2022-09-15T09:57:32.412Z,81.26
2022-09-15T09:58:32.406Z,81.35
2022-09-15T09:59:32.383Z,81.35
2022-09-15T10:00:32.378Z,81.35
2022-09-15T10:01:32.410Z,81.26
2022-09-15T10:02:32.353Z,81.35
2022-09-15T10:03:33.125Z,80.95
2022-09-15T10:04:32.409Z,80.75
2022-09-15T10:05:32.337Z,80.95
2022-09-15T10:06:32.315Z,81.05
2022-09-15T10:07:32.327Z,81.15
2022-09-15T10:08:32.309Z,81.05
2022-09-15T10:09:33.519Z,81.15
2022-09-15T10:10:32.406Z,81.15
2022-09-15T10:11:32.290Z,81.15
2022-09-15T10:12:32.281Z,80.95
2022-09-15T10:13:32.266Z,81.05
2022-09-15T10:14:32.247Z,81.26
2022-09-15T10:15:32.257Z,81.35
2022-09-15T10:16:32.292Z,81.15
2022-09-15T10:17:32.242Z,81.35
2022-09-15T10:18:32.217Z,81.26
2022-09-15T10:19:32.224Z,81.46
2022-09-15T10:20:32.221Z,81.56
2022-09-15T10:21:32.211Z,81.56
2022-09-15T10:22:32.194Z,81.56
2022-09-15T10:23:32.181Z,81.56
2022-09-15T10:24:32.176Z,81.76
2022-09-15T10:25:44.521Z,81.56
2022-09-15T10:26:32.195Z,81.05
2022-09-15T10:27:32.177Z,80.85
2022-09-15T10:28:32.143Z,81.05
2022-09-15T10:29:32.133Z,81.26
2022-09-15T10:30:32.114Z,81.46
2022-09-15T10:31:32.188Z,81.46
2022-09-15T10:32:32.094Z,81.35
2022-09-15T10:33:32.105Z,81.46
2022-09-15T10:34:32.097Z,81.46
2022-09-15T10:35:32.076Z,81.56
2022-09-15T10:36:32.080Z,81.46
2022-09-15T10:37:32.056Z,81.56
2022-09-15T10:38:32.047Z,81.41
2022-09-15T10:39:32.049Z,81.46
2022-09-15T10:40:32.084Z,81.32
2022-09-15T10:41:32.040Z,81.62
2022-09-15T10:42:32.022Z,81.21
2022-09-15T10:43:32.025Z,80.95
2022-09-15T10:44:31.998Z,81.12
2022-09-15T10:45:32.146Z,81.21
2022-09-15T10:46:33.240Z,81.12
2022-09-15T10:47:31.984Z,81.32
2022-09-15T10:48:31.974Z,81.32
2022-09-15T10:49:31.965Z,80.91
2022-09-15T10:50:31.941Z,80.81
2022-09-15T10:51:31.951Z,80.71
2022-09-15T10:52:31.936Z,80.55
2022-09-15T10:53:31.937Z,80.75
2022-09-15T10:54:31.927Z,80.65
2022-09-15T10:55:51.580Z,80.71
2022-09-15T10:56:31.894Z,80.61
2022-09-15T10:57:31.917Z,80.61
2022-09-15T10:58:31.888Z,80.81
2022-09-15T10:59:31.889Z,80.55
2022-09-15T11:00:32.013Z,80.61
2022-09-15T11:01:31.886Z,80.81
2022-09-15T11:02:31.899Z,80.51
2022-09-15T11:03:31.857Z,80.71
2022-09-15T11:04:31.842Z,80.81
2022-09-15T11:05:31.818Z,80.81
2022-09-15T11:06:31.821Z,80.81
2022-09-15T11:07:31.822Z,80.81
2022-09-15T11:08:31.791Z,80.41
2022-09-15T11:09:31.821Z,80.51
2022-09-15T11:10:31.783Z,80.51
2022-09-15T11:11:31.791Z,80.61
2022-09-15T11:12:31.758Z,80.71
2022-09-15T11:13:31.765Z,80.71
2022-09-15T11:14:31.752Z,80.81
2022-09-15T11:15:31.756Z,80.91
2022-09-15T11:16:31.754Z,80.71
2022-09-15T11:17:31.736Z,80.71
2022-09-15T11:18:31.703Z,80.91
2022-09-15T11:19:31.703Z,80.91
2022-09-15T11:20:31.694Z,80.91
2022-09-15T11:21:31.700Z,80.91
2022-09-15T11:22:31.681Z,80.91
2022-09-15T11:23:31.678Z,80.51
2022-09-15T11:24:31.675Z,80.51
2022-09-15T11:25:31.646Z,80.61
2022-09-15T11:26:31.657Z,80.51
2022-09-15T11:27:31.637Z,80.31
2022-09-15T11:28:31.617Z,80.61
2022-09-15T11:29:31.630Z,80.61
2022-09-15T11:30:31.603Z,80.61
2022-09-15T11:31:31.712Z,80.31
2022-09-15T11:32:31.589Z,80.11
2022-09-15T11:33:31.589Z,79.71
2022-09-15T11:34:31.587Z,80.01
2022-09-15T11:35:31.569Z,79.91
2022-09-15T11:36:31.552Z,80.01
2022-09-15T11:37:31.564Z,80.31
2022-09-15T11:38:31.549Z,80.31
2022-09-15T11:39:31.555Z,80.51
2022-09-15T11:40:31.570Z,80.51
2022-09-15T11:41:31.512Z,80.71
2022-09-15T11:42:31.503Z,80.68
2022-09-15T11:43:31.495Z,80.47
2022-09-15T11:44:31.497Z,80.37
2022-09-15T11:45:31.507Z,80.47
2022-09-15T11:46:31.500Z,80.37
2022-09-15T11:47:31.478Z,80.27
2022-09-15T11:48:31.458Z,80.07
2022-09-15T11:49:31.460Z,79.57
2022-09-15T11:50:31.436Z,79.57
2022-09-15T11:51:31.437Z,79.57
2022-09-15T11:52:31.431Z,79.97
2022-09-15T11:53:31.428Z,79.97
2022-09-15T11:54:31.700Z,79.87
2022-09-15T11:55:31.411Z,79.97
2022-09-15T11:56:31.378Z,79.67
2022-09-15T11:57:31.389Z,79.77
2022-09-15T11:58:31.384Z,80.07
2022-09-15T11:59:31.371Z,80.07
2022-09-15T12:00:31.351Z,80.07
2022-09-15T12:01:31.395Z,80.17
2022-09-15T12:02:31.386Z,80.17
2022-09-15T12:03:31.345Z,80.17
2022-09-15T12:04:31.337Z,80.17
2022-09-15T12:05:31.315Z,80.37
2022-09-15T12:06:31.303Z,80.27
2022-09-15T12:07:31.306Z,80.27
2022-09-15T12:08:31.297Z,80.27
2022-09-15T12:09:31.297Z,80.47
2022-09-15T12:10:31.280Z,80.37
2022-09-15T12:11:31.256Z,80.27
2022-09-15T12:12:31.432Z,80.37
2022-09-15T12:13:31.237Z,80.37
2022-09-15T12:14:31.237Z,80.37
2022-09-15T12:15:31.226Z,80.37
2022-09-15T12:16:31.229Z,80.68
2022-09-15T12:17:31.207Z,80.77
2022-09-15T12:18:41.059Z,80.68
2022-09-15T12:19:31.196Z,80.37
2022-09-15T12:20:31.192Z,80.37
2022-09-15T12:21:31.189Z,79.97
2022-09-15T12:22:31.183Z,80.17
2022-09-15T12:23:31.150Z,80.27
2022-09-15T12:24:31.163Z,80.17
2022-09-15T12:25:31.144Z,80.27
2022-09-15T12:26:31.132Z,80.37
2022-09-15T12:27:31.159Z,80.47
2022-09-15T12:29:31.115Z,80.17
2022-09-15T12:30:31.114Z,80.27
2022-09-15T12:31:31.136Z,80.27
2022-09-15T12:32:31.097Z,80.37
2022-09-15T12:33:31.083Z,80.17
2022-09-15T12:34:31.077Z,80.27
2022-09-15T12:35:31.069Z,80.17
2022-09-15T12:36:31.059Z,80.27
2022-09-15T12:37:31.050Z,80.37
2022-09-15T12:38:31.026Z,80.47
2022-09-15T12:39:31.027Z,80.37
2022-09-15T12:40:31.065Z,80.37
2022-09-15T12:41:31.011Z,80.47
2022-09-15T12:42:31.012Z,80.37
2022-09-15T12:43:31.008Z,80.27
2022-09-15T12:44:30.979Z,80.41
2022-09-15T12:45:31.013Z,80.31
2022-09-15T12:46:31.043Z,80.31
2022-09-15T12:47:30.963Z,80.31
2022-09-15T12:48:30.950Z,80.31
2022-09-15T12:49:30.930Z,80.31
2022-09-15T12:50:30.932Z,80.31
2022-09-15T12:51:30.931Z,80.31
2022-09-15T12:52:30.925Z,80.41
2022-09-15T12:53:30.970Z,80.31